Time;durP1;ratioP1;P1;durP2;ratioP2;P2;SDS_P1;SDS_P2;PMS_P1;PMS_P2;Temp;Humidity;BMP_temperature;BMP_pressure;BME280_temperature;BME280_humidity;BME280_pressure;Samples;Min_cycle;Max_cycle;Signal;HPM_P1;HPM_P2
2023/04/28 00:02:14;;;;;;;13.40;8.93;;;6.80;99.90;;;;;;4998703;28;20528;-86
2023/04/28 00:04:40;;;;;;;13.40;9.07;;;6.80;99.90;;;;;;5032270;28;20045;-86
2023/04/28 00:07:06;;;;;;;14.63;9.60;;;6.80;99.90;;;;;;5032090;28;20357;-86
2023/04/28 00:09:32;;;;;;;10.87;8.90;;;6.70;99.90;;;;;;5018127;28;20633;-86
2023/04/28 00:11:58;;;;;;;14.57;9.37;;;6.70;99.90;;;;;;4995502;28;20038;-86
2023/04/28 00:14:25;;;;;;;11.77;9.00;;;6.70;99.90;;;;;;4995854;28;20132;-86
2023/04/28 00:16:50;;;;;;;15.17;9.37;;;6.70;99.90;;;;;;5031200;28;20033;-85
2023/04/28 00:19:16;;;;;;;15.60;9.33;;;6.70;99.90;;;;;;5025116;28;20660;-84
2023/04/28 00:21:42;;;;;;;12.80;8.83;;;6.60;99.90;;;;;;4976898;28;20081;-85
2023/04/28 00:24:07;;;;;;;14.43;8.93;;;6.60;99.90;;;;;;5023369;28;20507;-85
2023/04/28 00:26:33;;;;;;;16.83;8.90;;;6.60;99.90;;;;;;5028703;28;20055;-85
2023/04/28 00:28:59;;;;;;;13.20;9.63;;;6.60;99.90;;;;;;5014811;28;20432;-85
2023/04/28 00:31:24;;;;;;;12.73;9.17;;;6.60;99.90;;;;;;4987158;28;20121;-85
2023/04/28 00:33:50;;;;;;;14.07;9.13;;;6.60;99.90;;;;;;5005543;28;20116;-85
2023/04/28 00:36:16;;;;;;;13.27;9.57;;;6.60;99.90;;;;;;5011664;28;20141;-85
2023/04/28 00:38:41;;;;;;;14.77;9.70;;;6.60;99.90;;;;;;5011413;28;20104;-85
2023/04/28 00:41:09;;;;;;;12.73;9.00;;;6.60;99.90;;;;;;4979028;28;20049;-85
2023/04/28 00:43:46;;;;;;;13.77;9.57;;;6.60;99.90;;;;;;5008911;28;20038;-85
2023/04/28 00:46:21;;;;;;;14.43;10.17;;;6.60;99.90;;;;;;5010462;28;20134;-85
2023/04/28 00:48:48;;;;;;;11.50;9.10;;;6.60;99.90;;;;;;5005120;28;20050;-84
2023/04/28 00:51:14;;;;;;;11.83;9.37;;;6.60;99.90;;;;;;5007865;28;20424;-85
2023/04/28 00:53:40;;;;;;;13.03;9.73;;;6.60;99.90;;;;;;5030915;28;20049;-85
2023/04/28 01:09:53;;;;;;;15.50;10.83;;;6.60;99.90;;;;;;5560450;22;20062;-86
2023/04/28 01:12:34;;;;;;;14.23;10.80;;;6.60;99.90;;;;;;4958518;22;20044;-82
2023/04/28 01:15:01;;;;;;;17.73;11.87;;;6.60;99.90;;;;;;5012844;28;20052;-82
2023/04/28 01:17:26;;;;;;;17.73;11.63;;;6.60;99.90;;;;;;5047386;28;20044;-81
2023/04/28 01:19:52;;;;;;;16.93;11.63;;;6.60;99.90;;;;;;5020969;28;20390;-81
2023/04/28 01:22:18;;;;;;;19.37;12.10;;;6.60;99.90;;;;;;5020472;28;20047;-81
2023/04/28 01:24:44;;;;;;;17.97;11.97;;;6.60;99.90;;;;;;5033407;28;20418;-82
2023/04/28 01:27:10;;;;;;;18.67;12.60;;;6.60;99.90;;;;;;5037028;28;20085;-81
2023/04/28 01:29:36;;;;;;;19.13;13.13;;;6.60;99.90;;;;;;5054792;28;20407;-82
2023/04/28 01:32:01;;;;;;;17.50;13.13;;;6.50;99.90;;;;;;5021290;28;20049;-82
2023/04/28 01:34:27;;;;;;;19.47;12.40;;;6.50;99.90;;;;;;5040841;28;20040;-82
2023/04/28 01:36:53;;;;;;;23.40;13.30;;;6.50;99.90;;;;;;5024474;28;20128;-82
2023/04/28 01:39:19;;;;;;;19.37;13.33;;;6.50;99.90;;;;;;5030495;28;20047;-82
2023/04/28 01:41:44;;;;;;;17.20;12.63;;;6.50;99.90;;;;;;5008560;28;20435;-81
2023/04/28 01:44:11;;;;;;;18.63;13.10;;;6.50;99.90;;;;;;5037667;28;20068;-82
2023/04/28 01:46:37;;;;;;;20.87;14.00;;;6.50;99.90;;;;;;5037810;28;20049;-82
2023/04/28 01:49:03;;;;;;;19.20;12.90;;;6.50;99.90;;;;;;5040771;28;20035;-81
2023/04/28 01:51:30;;;;;;;21.40;13.50;;;6.50;99.90;;;;;;5037563;28;20045;-81
2023/04/28 01:53:56;;;;;;;18.83;13.10;;;6.50;99.90;;;;;;5056873;28;20044;-82
2023/04/28 01:56:21;;;;;;;19.23;13.97;;;6.50;99.90;;;;;;5040523;28;20055;-81
2023/04/28 01:58:47;;;;;;;17.83;12.90;;;6.40;99.90;;;;;;5040577;28;20044;-82
2023/04/28 02:01:13;;;;;;;19.47;13.40;;;6.50;99.90;;;;;;5024165;28;20131;-81
2023/04/28 02:03:38;;;;;;;21.93;13.70;;;6.50;99.90;;;;;;5023978;28;20041;-81
2023/04/28 02:06:04;;;;;;;20.47;13.17;;;6.40;99.90;;;;;;5040460;28;20039;-82
2023/04/28 02:08:30;;;;;;;21.30;13.80;;;6.40;99.90;;;;;;5040264;28;20037;-82
2023/04/28 02:10:57;;;;;;;21.60;13.03;;;6.40;99.90;;;;;;5040622;28;20040;-82
2023/04/28 02:13:23;;;;;;;22.07;13.47;;;6.40;99.90;;;;;;5056594;28;20511;-82
2023/04/28 02:15:49;;;;;;;23.50;13.87;;;6.40;99.90;;;;;;5057124;28;20108;-83
2023/04/28 02:18:15;;;;;;;19.50;13.17;;;6.40;99.90;;;;;;5040700;28;20044;-81
2023/04/28 02:20:40;;;;;;;21.60;13.53;;;6.40;99.90;;;;;;5057542;28;20044;-81
2023/04/28 02:23:06;;;;;;;21.30;14.07;;;6.40;99.90;;;;;;5056341;28;20040;-81
2023/04/28 02:25:32;;;;;;;21.80;14.00;;;6.30;99.90;;;;;;5040049;28;20047;-81
2023/04/28 02:27:58;;;;;;;21.47;14.87;;;6.30;99.90;;;;;;5003565;28;20068;-81
2023/04/28 02:30:23;;;;;;;24.53;15.00;;;6.30;99.90;;;;;;5049582;28;20044;-82
2023/04/28 02:32:49;;;;;;;24.97;14.57;;;6.30;99.90;;;;;;5055380;28;20044;-81
2023/04/28 02:35:15;;;;;;;22.37;14.53;;;6.30;99.90;;;;;;5039444;28;20101;-82
2023/04/28 02:37:41;;;;;;;21.60;14.60;;;6.30;99.90;;;;;;5023059;28;20076;-81
2023/04/28 02:40:07;;;;;;;23.10;14.80;;;6.30;99.90;;;;;;5056003;28;20458;-82
2023/04/28 02:42:33;;;;;;;25.70;15.40;;;6.30;99.90;;;;;;5037968;28;20458;-81
2023/04/28 02:44:58;;;;;;;24.83;15.63;;;6.30;99.90;;;;;;5019204;28;20064;-82
2023/04/28 02:47:24;;;;;;;23.17;14.50;;;6.20;99.90;;;;;;5036678;28;20113;-82
2023/04/28 02:49:50;;;;;;;22.30;15.40;;;6.20;99.90;;;;;;5039713;28;20051;-82
2023/04/28 02:52:15;;;;;;;24.13;15.63;;;6.30;99.90;;;;;;5039879;28;20115;-81
2023/04/28 02:54:41;;;;;;;24.10;15.40;;;6.30;99.90;;;;;;5056170;28;20048;-82
2023/04/28 02:57:07;;;;;;;25.47;16.37;;;6.20;99.90;;;;;;5039630;28;20044;-81
2023/04/28 02:59:34;;;;;;;27.67;16.07;;;6.20;99.90;;;;;;5040935;28;20040;-81
2023/04/28 03:02:00;;;;;;;24.43;16.37;;;6.20;99.90;;;;;;5024161;28;20032;-81
2023/04/28 03:04:26;;;;;;;25.50;15.53;;;6.20;99.90;;;;;;5039358;28;20514;-82
2023/04/28 03:06:52;;;;;;;27.00;16.50;;;6.20;99.90;;;;;;5006894;28;20051;-82
2023/04/28 03:09:17;;;;;;;24.60;16.33;;;6.20;99.90;;;;;;5056021;28;20404;-82
2023/04/28 03:11:43;;;;;;;27.43;16.37;;;6.10;99.90;;;;;;5055890;28;20036;-82
2023/04/28 03:14:09;;;;;;;26.07;16.40;;;6.10;99.90;;;;;;5004948;28;20087;-82
2023/04/28 03:16:34;;;;;;;28.00;17.43;;;6.10;99.90;;;;;;5038925;28;20131;-81
2023/04/28 03:19:00;;;;;;;25.43;16.37;;;6.10;99.90;;;;;;5039232;28;20570;-82
2023/04/28 03:21:26;;;;;;;28.87;17.77;;;6.10;99.90;;;;;;5055376;28;20808;-82
2023/04/28 03:23:52;;;;;;;24.70;16.03;;;6.00;99.90;;;;;;5022491;28;20044;-82
2023/04/28 03:26:18;;;;;;;26.33;16.17;;;6.00;99.90;;;;;;5055642;28;20040;-82
2023/04/28 03:28:44;;;;;;;28.23;17.50;;;6.00;99.90;;;;;;5039019;28;20043;-82
2023/04/28 03:31:10;;;;;;;26.40;18.00;;;6.00;99.90;;;;;;5022634;28;20033;-81
2023/04/28 03:33:36;;;;;;;28.80;17.47;;;6.00;99.90;;;;;;5038991;28;20044;-82
2023/04/28 03:36:01;;;;;;;26.50;17.17;;;6.00;99.90;;;;;;5022598;28;20048;-82
2023/04/28 03:38:27;;;;;;;27.10;16.87;;;6.00;99.90;;;;;;5038839;28;20044;-82
2023/04/28 03:40:53;;;;;;;29.70;18.47;;;6.00;99.90;;;;;;5038823;28;20123;-82
2023/04/28 03:43:18;;;;;;;28.90;18.37;;;6.10;99.90;;;;;;5022429;28;20110;-82
2023/04/28 03:45:44;;;;;;;28.10;17.27;;;6.10;99.90;;;;;;5038732;28;20029;-82
2023/04/28 03:48:10;;;;;;;28.63;18.30;;;6.10;99.90;;;;;;5055354;28;20072;-82
2023/04/28 03:50:36;;;;;;;28.00;18.03;;;6.10;99.90;;;;;;5038417;28;20036;-81
2023/04/28 03:53:01;;;;;;;25.80;16.93;;;6.10;99.90;;;;;;5037989;28;20044;-82
2023/04/28 03:55:27;;;;;;;28.97;17.70;;;6.10;99.90;;;;;;5018639;28;20052;-82
2023/04/28 03:57:53;;;;;;;29.20;18.33;;;6.10;99.90;;;;;;5038449;28;20429;-82
2023/04/28 04:00:19;;;;;;;28.27;17.83;;;6.10;99.90;;;;;;5054947;28;20044;-82
2023/04/28 04:02:45;;;;;;;27.50;17.87;;;6.10;99.90;;;;;;5038175;28;20159;-82
2023/04/28 04:05:11;;;;;;;31.83;18.50;;;6.10;99.90;;;;;;5038279;28;20063;-82
2023/04/28 04:07:37;;;;;;;28.47;18.10;;;6.10;99.90;;;;;;5037927;28;20036;-82
2023/04/28 04:10:02;;;;;;;30.90;17.83;;;6.10;99.90;;;;;;5037897;28;20040;-82
2023/04/28 04:12:28;;;;;;;30.63;17.80;;;6.10;99.90;;;;;;5037654;28;20135;-82
2023/04/28 04:14:54;;;;;;;26.47;17.80;;;6.10;99.90;;;;;;5021019;28;20056;-82
2023/04/28 04:17:19;;;;;;;28.97;18.33;;;6.10;99.90;;;;;;5021015;28;20487;-82
2023/04/28 04:19:45;;;;;;;30.10;18.30;;;6.10;99.90;;;;;;5037825;28;20048;-82
2023/04/28 04:22:11;;;;;;;31.23;18.00;;;6.10;99.90;;;;;;5036935;28;20040;-82
2023/04/28 04:24:37;;;;;;;31.40;18.53;;;6.10;99.90;;;;;;5052955;28;20041;-82
2023/04/28 04:27:02;;;;;;;28.50;18.00;;;6.10;99.90;;;;;;5021732;28;20052;-82
2023/04/28 04:29:28;;;;;;;27.00;17.87;;;6.10;99.90;;;;;;5054904;28;20052;-82
2023/04/28 04:31:54;;;;;;;27.17;17.03;;;6.10;99.90;;;;;;5054587;28;20127;-81
2023/04/28 04:34:19;;;;;;;27.57;17.87;;;6.10;99.90;;;;;;5037611;28;20457;-82
2023/04/28 04:36:45;;;;;;;29.53;17.07;;;6.10;99.90;;;;;;5038115;28;20442;-82
2023/04/28 04:39:11;;;;;;;26.27;18.03;;;6.10;99.90;;;;;;5024032;28;20127;-82
2023/04/28 04:41:37;;;;;;;28.43;17.33;;;6.10;99.90;;;;;;5021378;28;20079;-82
2023/04/28 04:44:03;;;;;;;28.60;17.63;;;6.10;99.90;;;;;;5037805;28;20033;-82
2023/04/28 04:46:29;;;;;;;25.73;17.53;;;6.20;99.90;;;;;;5021141;28;20033;-82
2023/04/28 04:48:55;;;;;;;30.67;18.50;;;6.20;99.90;;;;;;5020892;28;20032;-81
2023/04/28 04:51:20;;;;;;;30.97;17.27;;;6.20;99.90;;;;;;5004699;28;20040;-81
2023/04/28 04:53:46;;;;;;;28.17;17.40;;;6.20;99.90;;;;;;5020577;28;20083;-82
2023/04/28 04:56:12;;;;;;;28.73;17.17;;;6.20;99.90;;;;;;5036903;28;20490;-81
2023/04/28 04:58:37;;;;;;;30.57;17.03;;;6.20;99.90;;;;;;5037206;28;20044;-82
2023/04/28 05:01:03;;;;;;;26.57;17.47;;;6.20;99.90;;;;;;5021036;28;20040;-82
2023/04/28 05:03:29;;;;;;;28.20;17.13;;;6.20;99.90;;;;;;5037008;28;20045;-82
2023/04/28 05:05:55;;;;;;;25.23;16.80;;;6.20;99.90;;;;;;5037083;28;20032;-82
2023/04/28 05:08:20;;;;;;;25.97;16.97;;;6.20;99.90;;;;;;5004777;28;20044;-82
2023/04/28 05:10:46;;;;;;;31.47;18.30;;;6.20;99.90;;;;;;5004762;28;20037;-81
2023/04/28 05:13:12;;;;;;;26.77;17.17;;;6.30;99.90;;;;;;5053923;28;20493;-82
2023/04/28 05:15:37;;;;;;;26.90;17.53;;;6.30;99.90;;;;;;5020604;28;20060;-82
2023/04/28 05:18:08;;;;;;;29.23;18.23;;;6.30;99.90;;;;;;5021144;28;20426;-82
2023/04/28 05:20:34;;;;;;;27.90;17.70;;;6.30;99.90;;;;;;5054057;28;20487;-82
2023/04/28 05:23:00;;;;;;;26.40;16.83;;;6.40;99.90;;;;;;5037312;28;20043;-82
2023/04/28 05:25:25;;;;;;;27.07;16.83;;;6.40;99.90;;;;;;5037235;28;20046;-82
2023/04/28 05:27:51;;;;;;;24.13;16.33;;;6.40;99.90;;;;;;5053719;28;20039;-82
2023/04/28 05:30:17;;;;;;;28.57;16.77;;;6.50;99.90;;;;;;5020409;28;20039;-82
2023/04/28 05:32:42;;;;;;;28.83;17.50;;;6.50;99.90;;;;;;5036971;28;20052;-82
2023/04/28 05:35:08;;;;;;;25.20;16.67;;;6.50;99.90;;;;;;5053700;28;20044;-82
2023/04/28 05:37:36;;;;;;;23.07;15.50;;;6.60;99.90;;;;;;5020860;28;20040;-82
2023/04/28 05:40:02;;;;;;;25.50;16.87;;;6.60;99.90;;;;;;5021191;28;20048;-82
2023/04/28 05:42:28;;;;;;;24.27;16.47;;;6.70;99.90;;;;;;5037024;28;20438;-82
2023/04/28 05:44:54;;;;;;;25.50;16.60;;;6.70;99.90;;;;;;5037022;28;20037;-82
2023/04/28 05:47:20;;;;;;;26.40;16.60;;;6.80;99.90;;;;;;5037123;28;20470;-82
2023/04/28 05:49:45;;;;;;;25.17;16.53;;;6.90;99.90;;;;;;5053694;28;20402;-82
2023/04/28 05:52:11;;;;;;;26.67;16.40;;;6.90;99.90;;;;;;5020405;28;20044;-82
2023/04/28 05:54:37;;;;;;;25.20;16.67;;;7.00;99.90;;;;;;5053601;28;20083;-82
2023/04/28 05:57:03;;;;;;;25.60;15.80;;;7.00;99.90;;;;;;5017126;28;20040;-82
2023/04/28 05:59:30;;;;;;;23.03;16.07;;;7.00;99.90;;;;;;5017404;28;20044;-82
2023/04/28 06:01:55;;;;;;;25.07;16.53;;;7.00;99.90;;;;;;5033398;28;20075;-82
2023/04/28 06:04:21;;;;;;;23.30;16.47;;;7.10;99.90;;;;;;5004054;28;20072;-82
2023/04/28 06:06:47;;;;;;;25.17;15.97;;;7.20;99.90;;;;;;5053620;28;20040;-81
2023/04/28 06:09:12;;;;;;;24.90;16.47;;;7.10;99.90;;;;;;5053823;28;20480;-82
2023/04/28 06:11:38;;;;;;;23.20;15.90;;;7.10;99.90;;;;;;5036513;28;20107;-82
2023/04/28 06:14:04;;;;;;;23.13;15.40;;;7.10;99.90;;;;;;5018133;28;20128;-82
2023/04/28 06:16:30;;;;;;;25.17;16.10;;;7.20;99.90;;;;;;5038980;28;20052;-82
2023/04/28 06:18:56;;;;;;;23.77;16.30;;;7.20;99.90;;;;;;5056937;28;20403;-82
2023/04/28 06:21:23;;;;;;;24.43;15.83;;;7.20;99.90;;;;;;5042825;28;20105;-82
2023/04/28 06:23:49;;;;;;;26.27;16.30;;;7.30;99.90;;;;;;5040203;28;20097;-82
2023/04/28 06:26:15;;;;;;;25.80;16.80;;;7.20;99.90;;;;;;5040194;28;20494;-82
2023/04/28 06:28:41;;;;;;;23.40;15.53;;;7.30;99.90;;;;;;5040212;28;20129;-82
2023/04/28 06:31:08;;;;;;;24.97;15.93;;;7.30;99.90;;;;;;5056721;28;20448;-82
2023/04/28 06:33:33;;;;;;;25.87;15.43;;;7.30;99.90;;;;;;5023825;28;20040;-82
2023/04/28 06:35:59;;;;;;;23.67;15.17;;;7.30;99.90;;;;;;5003805;28;20464;-82
2023/04/28 06:38:25;;;;;;;24.43;14.83;;;7.30;99.90;;;;;;5019794;28;20369;-82
2023/04/28 06:40:51;;;;;;;22.13;15.20;;;7.30;99.90;;;;;;5006734;28;20043;-81
2023/04/28 06:43:17;;;;;;;23.33;15.33;;;7.30;99.90;;;;;;5023083;28;20040;-81
2023/04/28 06:45:43;;;;;;;22.27;14.33;;;7.30;99.90;;;;;;5039890;28;20044;-81
2023/04/28 06:48:09;;;;;;;23.07;14.30;;;7.30;99.90;;;;;;5039420;28;20036;-81
2023/04/28 06:50:36;;;;;;;22.67;14.20;;;7.30;99.90;;;;;;5039477;28;20541;-82
2023/04/28 06:53:01;;;;;;;20.20;14.13;;;7.40;99.90;;;;;;5039158;28;20048;-82
2023/04/28 06:55:27;;;;;;;21.60;14.70;;;7.40;99.90;;;;;;5022751;28;20098;-81
2023/04/28 06:57:53;;;;;;;20.13;13.87;;;7.40;99.90;;;;;;5038965;28;20032;-81
2023/04/28 07:00:19;;;;;;;20.10;13.43;;;7.50;99.90;;;;;;5037818;28;20513;-81
2023/04/28 07:02:45;;;;;;;22.97;14.87;;;7.50;99.90;;;;;;5022803;28;20055;-81
2023/04/28 07:05:11;;;;;;;21.73;15.07;;;7.60;99.90;;;;;;5055598;28;20040;-81
2023/04/28 07:07:40;;;;;;;23.73;13.60;;;7.70;99.90;;;;;;5055635;28;20052;-81
2023/04/28 07:10:06;;;;;;;20.77;13.83;;;7.70;99.90;;;;;;5056120;28;20036;-81
2023/04/28 07:12:32;;;;;;;20.23;14.07;;;7.80;99.90;;;;;;5022664;28;20075;-82
2023/04/28 07:14:57;;;;;;;20.83;13.63;;;7.90;99.90;;;;;;5022178;28;20045;-81
2023/04/28 07:17:23;;;;;;;20.23;13.53;;;7.90;99.90;;;;;;5039316;28;20044;-81
2023/04/28 07:19:49;;;;;;;21.13;14.23;;;7.90;99.90;;;;;;5056101;28;20090;-81
2023/04/28 07:22:16;;;;;;;23.33;15.03;;;8.00;99.90;;;;;;5039230;28;20052;-81
2023/04/28 07:24:43;;;;;;;22.87;14.73;;;8.10;99.90;;;;;;5030553;28;20087;-81
2023/04/28 07:27:09;;;;;;;20.53;13.43;;;8.20;99.90;;;;;;5055175;28;20123;-81
2023/04/28 07:29:34;;;;;;;17.47;12.80;;;8.20;99.90;;;;;;5039006;28;20033;-81
2023/04/28 07:32:01;;;;;;;22.17;14.07;;;8.20;99.90;;;;;;5038779;28;20071;-80
2023/04/28 07:34:27;;;;;;;17.27;12.93;;;8.30;99.90;;;;;;5034713;28;20051;-81
2023/04/28 07:36:53;;;;;;;21.83;14.10;;;8.30;99.90;;;;;;5055098;28;20040;-80
2023/04/28 07:39:19;;;;;;;19.73;13.70;;;8.30;99.90;;;;;;5055398;28;20044;-80
2023/04/28 07:41:45;;;;;;;19.97;12.37;;;8.30;99.90;;;;;;5021846;28;20486;-81
2023/04/28 07:44:10;;;;;;;20.53;13.80;;;8.40;99.90;;;;;;5038168;28;20098;-81
2023/04/28 07:46:37;;;;;;;19.40;13.57;;;8.40;99.90;;;;;;5038487;28;20105;-81
2023/04/28 07:49:03;;;;;;;19.50;12.73;;;8.50;99.90;;;;;;5038639;28;20040;-80
2023/04/28 07:51:29;;;;;;;22.03;13.80;;;8.50;99.90;;;;;;5038496;28;20045;-81
2023/04/28 07:53:56;;;;;;;19.37;13.10;;;8.60;99.90;;;;;;5038256;28;20439;-80
2023/04/28 07:56:22;;;;;;;20.90;13.17;;;8.60;99.90;;;;;;5021743;28;20131;-81
2023/04/28 07:58:47;;;;;;;17.80;12.57;;;8.70;99.90;;;;;;5037838;28;20126;-81
2023/04/28 08:01:13;;;;;;;17.63;12.70;;;8.80;99.90;;;;;;5038196;28;20064;-81
2023/04/28 08:03:39;;;;;;;18.63;12.37;;;8.80;99.90;;;;;;5038700;28;20052;-80
2023/04/28 08:06:06;;;;;;;18.13;12.33;;;8.80;99.90;;;;;;5037059;28;20040;-81
2023/04/28 08:08:32;;;;;;;19.97;12.23;;;8.80;99.90;;;;;;5054363;28;20075;-81
2023/04/28 08:10:58;;;;;;;19.50;13.00;;;8.80;99.90;;;;;;5037034;28;20043;-80
2023/04/28 08:13:24;;;;;;;17.53;12.10;;;8.90;99.90;;;;;;5037336;28;20040;-81
2023/04/28 08:15:50;;;;;;;19.83;12.13;;;9.00;99.90;;;;;;5020740;28;20117;-80
2023/04/28 08:18:16;;;;;;;18.07;11.87;;;9.10;99.90;;;;;;5037293;28;20041;-80
2023/04/28 08:20:41;;;;;;;17.80;12.63;;;9.20;99.90;;;;;;5037588;28;20063;-80
2023/04/28 08:23:08;;;;;;;17.53;11.70;;;9.30;99.90;;;;;;5054149;28;20043;-80
2023/04/28 08:25:34;;;;;;;20.33;12.53;;;9.30;99.90;;;;;;5037584;28;20533;-80
2023/04/28 08:28:02;;;;;;;18.33;12.47;;;9.40;99.90;;;;;;5037894;28;20028;-80
2023/04/28 08:30:28;;;;;;;16.50;11.30;;;9.50;99.90;;;;;;5020215;28;20037;-81
2023/04/28 08:32:54;;;;;;;16.40;11.17;;;9.60;99.90;;;;;;5037209;28;20089;-80
2023/04/28 08:35:19;;;;;;;17.57;11.23;;;9.70;99.90;;;;;;5053973;28;20131;-81
2023/04/28 08:37:48;;;;;;;17.17;11.63;;;9.80;99.90;;;;;;5037533;28;20048;-80
2023/04/28 08:40:14;;;;;;;18.87;11.67;;;10.00;99.90;;;;;;5047704;28;20120;-80
2023/04/28 08:42:41;;;;;;;18.13;12.17;;;10.20;99.90;;;;;;5036904;28;20457;-80
2023/04/28 08:45:11;;;;;;;16.90;10.93;;;10.30;99.90;;;;;;5053974;28;20036;-80
2023/04/28 08:47:46;;;;;;;13.80;10.70;;;10.40;99.90;;;;;;5053469;28;20072;-80
2023/04/28 08:50:12;;;;;;;16.10;11.03;;;10.40;99.90;;;;;;5034519;28;20605;-80
2023/04/28 08:52:40;;;;;;;15.17;11.10;;;10.50;99.90;;;;;;5036852;28;20126;-80
2023/04/28 08:55:08;;;;;;;15.53;11.07;;;10.40;99.90;;;;;;5053937;28;20075;-82
2023/04/28 08:57:41;;;;;;;15.27;11.10;;;10.40;99.90;;;;;;5053762;28;20162;-81
2023/04/28 09:00:08;;;;;;;18.53;11.67;;;10.40;99.90;;;;;;5053647;28;20040;-81
2023/04/28 09:02:36;;;;;;;13.07;10.57;;;10.30;99.90;;;;;;5053733;28;20186;-81
2023/04/28 09:05:11;;;;;;;16.90;11.63;;;10.30;99.90;;;;;;5037538;28;20078;-81
2023/04/28 09:07:37;;;;;;;18.63;12.77;;;10.30;99.90;;;;;;5053695;28;20048;-80
2023/04/28 09:10:19;;;;;;;16.10;11.43;;;10.40;99.90;;;;;;5036520;28;20062;-81
2023/04/28 09:12:45;;;;;;;21.55;12.25;;;10.40;99.90;;;;;;5053365;28;20561;-81
2023/04/28 09:15:31;;;;;;;16.40;11.63;;;10.50;99.90;;;;;;5036929;28;20114;-80
2023/04/28 09:17:57;;;;;;;19.77;13.93;;;10.60;99.90;;;;;;5052542;28;20102;-81
2023/04/28 09:20:27;;;;;;;27.27;23.07;;;10.60;99.90;;;;;;5036325;28;20048;-80
2023/04/28 09:22:55;;;;;;;16.27;13.70;;;10.70;99.90;;;;;;5036901;28;20051;-81
2023/04/28 09:25:22;;;;;;;17.67;11.20;;;10.80;99.90;;;;;;5072577;28;20036;-80
2023/04/28 09:27:52;;;;;;;16.73;12.97;;;11.10;99.90;;;;;;5036513;28;20063;-81
2023/04/28 09:30:19;;;;;;;16.50;11.80;;;11.30;99.90;;;;;;5036178;28;20044;-81
2023/04/28 09:32:44;;;;;;;16.07;11.60;;;11.30;99.90;;;;;;5019737;28;20047;-81
2023/04/28 09:35:10;;;;;;;16.00;11.57;;;11.40;99.90;;;;;;5036066;28;20037;-80
2023/04/28 09:37:36;;;;;;;14.37;10.87;;;11.50;99.90;;;;;;5019080;28;20045;-81
2023/04/28 09:40:07;;;;;;;15.07;11.93;;;11.60;99.90;;;;;;5036263;28;20052;-81
2023/04/28 09:42:40;;;;;;;17.63;11.40;;;11.60;99.90;;;;;;5035987;28;20508;-81
2023/04/28 09:45:08;;;;;;;12.97;11.17;;;11.60;99.90;;;;;;5052560;28;20653;-81
2023/04/28 09:47:37;;;;;;;18.70;11.43;;;11.60;99.90;;;;;;5053755;28;20040;-80
2023/04/28 09:50:05;;;;;;;15.40;11.57;;;11.60;99.90;;;;;;5053131;28;20063;-81
2023/04/28 09:52:33;;;;;;;19.67;14.77;;;11.70;99.90;;;;;;5049957;28;20072;-81
2023/04/28 09:55:01;;;;;;;19.38;14.18;;;11.70;99.90;;;;;;5055664;28;20063;-81
2023/04/28 09:57:31;;;;;;;15.27;11.30;;;11.70;99.90;;;;;;5056404;28;20048;-81
2023/04/28 09:59:57;;;;;;;15.27;10.67;;;11.80;99.90;;;;;;5056655;28;20503;-81
2023/04/28 10:02:24;;;;;;;16.07;11.50;;;11.90;99.90;;;;;;5056288;28;20036;-81
2023/04/28 10:04:50;;;;;;;13.10;11.00;;;12.10;99.90;;;;;;5007043;28;20116;-81
2023/04/28 10:07:19;;;;;;;12.17;10.93;;;12.30;99.90;;;;;;5039725;28;20036;-82
2023/04/28 10:09:51;;;;;;;13.25;10.90;;;12.50;99.90;;;;;;5055535;28;20044;-82
2023/04/28 10:12:17;;;;;;;;;;;12.60;99.90;;;;;;5040141;28;20071;-82
2023/04/28 10:14:44;;;;;;;16.80;11.63;;;12.60;99.90;;;;;;5038461;28;20398;-82
2023/04/28 10:17:12;;;;;;;13.43;11.18;;;12.80;99.90;;;;;;5039037;28;20455;-81
2023/04/28 10:19:40;;;;;;;15.50;12.40;;;12.80;99.90;;;;;;5055191;28;20437;-81
2023/04/28 10:22:22;;;;;;;18.42;14.57;;;12.90;99.90;;;;;;5054928;28;20047;-82
2023/04/28 10:25:08;;;;;;;;;;;13.10;99.90;;;;;;5039146;28;20044;-82
2023/04/28 10:27:35;;;;;;;16.42;11.30;;;13.20;99.90;;;;;;5042025;28;20038;-82
2023/04/28 10:30:12;;;;;;;15.25;12.32;;;13.30;99.90;;;;;;5056139;28;20036;-82
2023/04/28 10:32:38;;;;;;;17.05;12.35;;;13.30;99.90;;;;;;5056109;28;20533;-82
2023/04/28 10:35:39;;;;;;;16.95;11.13;;;13.30;99.90;;;;;;5055675;28;20040;-82
2023/04/28 10:38:20;;;;;;;15.38;11.70;;;13.30;99.90;;;;;;5038204;28;20045;-82
2023/04/28 10:40:46;;;;;;;17.67;12.18;;;13.30;99.90;;;;;;5056296;28;20036;-86
2023/04/28 10:43:24;;;;;;;15.32;12.25;;;13.50;99.90;;;;;;5039942;28;20053;-81
2023/04/28 10:45:55;;;;;;;17.20;13.00;;;13.50;99.90;;;;;;5036846;28;20050;-81
2023/04/28 10:48:41;;;;;;;17.10;12.52;;;13.70;99.90;;;;;;5055888;28;20036;-81
2023/04/28 10:51:11;;;;;;;15.13;12.15;;;13.80;99.90;;;;;;5039177;28;20036;-82
2023/04/28 10:53:43;;;;;;;16.15;11.65;;;14.00;99.90;;;;;;5056075;28;20537;-82
2023/04/28 10:56:10;;;;;;;29.67;20.85;;;14.00;99.90;;;;;;5055495;28;20207;-81
2023/04/28 10:58:40;;;;;;;13.60;11.85;;;14.00;99.90;;;;;;5056108;28;20043;-81
2023/04/28 11:01:22;;;;;;;12.85;10.98;;;14.00;99.90;;;;;;5039493;28;20131;-81
2023/04/28 11:04:01;;;;;;;16.40;13.43;;;14.00;99.90;;;;;;5031917;28;20132;-81
2023/04/28 11:06:38;;;;;;;14.02;12.52;;;14.00;99.90;;;;;;5055290;28;20036;-82
2023/04/28 11:09:13;;;;;;;17.55;13.05;;;14.00;99.90;;;;;;5039234;28;20036;-82
2023/04/28 11:11:59;;;;;;;14.65;11.73;;;13.90;99.90;;;;;;5039069;28;20032;-82
2023/04/28 11:14:25;;;;;;;13.25;10.63;;;13.90;99.90;;;;;;5029327;28;20041;-81
2023/04/28 11:16:53;;;;;;;13.20;10.93;;;13.90;99.90;;;;;;5046180;28;20399;-82
2023/04/28 11:19:24;;;;;;;16.38;11.25;;;14.00;99.90;;;;;;5034057;28;20064;-81
2023/04/28 11:21:52;;;;;;;15.00;11.32;;;14.00;99.90;;;;;;5033856;28;20425;-82
2023/04/28 11:24:18;;;;;;;15.82;11.93;;;14.10;99.90;;;;;;5055307;28;20040;-82
2023/04/28 11:26:44;;;;;;;15.60;11.38;;;14.10;99.90;;;;;;5055380;28;20036;-81
2023/04/28 11:29:11;;;;;;;14.20;11.80;;;14.20;99.90;;;;;;5054235;28;20037;-82
2023/04/28 11:31:37;;;;;;;13.68;11.65;;;14.30;99.90;;;;;;5053985;28;20430;-81
2023/04/28 11:34:05;;;;;;;17.13;11.80;;;14.30;99.90;;;;;;5038226;28;20479;-81
2023/04/28 11:36:36;;;;;;;14.23;12.05;;;14.40;99.90;;;;;;5053988;28;20040;-83
2023/04/28 11:39:06;;;;;;;13.13;11.65;;;14.40;99.90;;;;;;5054234;28;20126;-81
2023/04/28 11:41:34;;;;;;;13.48;11.50;;;14.40;99.90;;;;;;5037704;28;20055;-82
2023/04/28 11:44:08;;;;;;;15.82;11.65;;;14.30;99.90;;;;;;5037976;28;20040;-82
2023/04/28 11:46:33;;;;;;;17.27;11.65;;;14.20;99.90;;;;;;5029212;28;20081;-81
2023/04/28 11:49:03;;;;;;;16.15;12.45;;;14.10;99.90;;;;;;5037678;28;20040;-82
2023/04/28 11:51:35;;;;;;;13.93;11.88;;;14.00;99.90;;;;;;5055046;28;20042;-81
2023/04/28 11:54:02;;;;;;;13.90;12.40;;;14.00;99.90;;;;;;5038121;28;20045;-80
2023/04/28 11:56:28;;;;;;;14.52;12.95;;;14.00;99.90;;;;;;5054914;28;20418;-81
2023/04/28 11:59:06;;;;;;;17.15;12.70;;;14.00;99.90;;;;;;5037842;28;20033;-81
2023/04/28 12:01:33;;;;;;;15.93;13.45;;;14.00;99.90;;;;;;5022152;28;20132;-81
2023/04/28 12:03:59;;;;;;;15.23;12.63;;;14.00;99.90;;;;;;5054504;28;20037;-81
2023/04/28 12:06:25;;;;;;;15.85;12.25;;;14.10;99.90;;;;;;5055061;28;20040;-81
2023/04/28 12:08:51;;;;;;;14.10;12.60;;;14.10;99.90;;;;;;5037822;28;20546;-80
2023/04/28 12:11:19;;;;;;;14.27;12.63;;;14.10;99.90;;;;;;5022105;28;20044;-80
2023/04/28 12:14:02;;;;;;;15.18;13.07;;;14.10;99.90;;;;;;5037417;28;20119;-81
2023/04/28 12:16:42;;;;;;;14.90;12.38;;;14.10;99.90;;;;;;5020926;28;20071;-81
2023/04/28 12:19:09;;;;;;;16.52;14.48;;;14.10;99.90;;;;;;5037658;28;20123;-80
2023/04/28 12:21:36;;;;;;;14.23;12.75;;;14.10;99.90;;;;;;5037544;28;20072;-81
2023/04/28 12:24:20;;;;;;;18.05;15.90;;;14.20;99.90;;;;;;5054170;28;20057;-80
2023/04/28 12:26:47;;;;;;;19.55;15.40;;;14.10;99.90;;;;;;5054433;28;20123;-80
2023/04/28 12:29:36;;;;;;;16.08;12.50;;;14.00;99.90;;;;;;5038010;28;20044;-80
2023/04/28 12:32:03;;;;;;;13.90;12.48;;;14.00;99.90;;;;;;5038126;28;20127;-81
2023/04/28 12:34:30;;;;;;;13.57;11.80;;;13.90;99.90;;;;;;5021713;28;20123;-80
2023/04/28 12:36:56;;;;;;;15.20;12.85;;;13.80;99.90;;;;;;5037762;28;20074;-80
2023/04/28 12:39:22;;;;;;;13.95;12.32;;;13.80;99.90;;;;;;5037771;28;20392;-80
2023/04/28 12:41:48;;;;;;;15.05;12.05;;;13.80;99.90;;;;;;5021315;28;20040;-80
2023/04/28 12:44:14;;;;;;;15.85;13.32;;;13.80;99.90;;;;;;5037493;28;20123;-80
2023/04/28 12:46:40;;;;;;;18.75;14.55;;;13.90;99.90;;;;;;5004881;28;20391;-81
2023/04/28 12:49:06;;;;;;;16.02;13.27;;;14.00;99.90;;;;;;5054143;28;20098;-81
2023/04/28 12:51:33;;;;;;;20.63;15.15;;;13.90;99.90;;;;;;5037694;28;20498;-80